createdAt,value
2023-05-18T00:00:01.979Z,76.95
2023-05-18T00:02:51.534Z,77.10
2023-05-18T00:05:18.239Z,76.96
2023-05-18T00:07:46.234Z,76.92
2023-05-18T00:10:12.709Z,76.97
2023-05-18T00:12:39.255Z,77.13
2023-05-18T00:15:06.147Z,77.02
2023-05-18T00:17:32.559Z,77.14
2023-05-18T00:20:00.355Z,77.25
2023-05-18T00:22:26.803Z,77.17
2023-05-18T00:24:53.212Z,77.27
2023-05-18T00:27:19.756Z,77.30
2023-05-18T00:29:46.253Z,77.34
2023-05-18T00:32:12.662Z,77.46
2023-05-18T00:34:39.235Z,77.37
2023-05-18T00:37:05.767Z,77.39
2023-05-18T00:39:32.113Z,77.35
2023-05-18T00:41:58.608Z,77.23
2023-05-18T00:44:26.122Z,77.30
2023-05-18T00:46:53.697Z,77.29
2023-05-18T00:49:20.570Z,77.34
2023-05-18T00:51:47.458Z,77.36
2023-05-18T00:54:15.880Z,77.46
2023-05-18T00:56:45.530Z,77.51
2023-05-18T00:59:12.067Z,77.61
2023-05-18T01:01:43.069Z,77.70
2023-05-18T01:04:09.816Z,77.67
2023-05-18T01:06:36.666Z,77.65
2023-05-18T01:09:06.107Z,77.71
2023-05-18T01:11:32.613Z,77.80
2023-05-18T01:14:39.395Z,77.82
2023-05-18T01:17:21.146Z,77.82
2023-05-18T01:19:50.953Z,77.85
2023-05-18T01:22:33.289Z,77.95
2023-05-18T01:25:16.794Z,77.92
2023-05-18T01:27:45.775Z,78.06
2023-05-18T01:30:17.377Z,78.10
2023-05-18T01:32:46.391Z,78.15
2023-05-18T01:35:13.004Z,78.37
2023-05-18T01:37:39.854Z,78.58
2023-05-18T01:40:08.567Z,78.74
2023-05-18T01:42:44.041Z,78.97
2023-05-18T01:45:21.015Z,79.09
2023-05-18T01:47:48.715Z,79.13
2023-05-18T01:50:25.177Z,79.10
2023-05-18T01:52:57.766Z,79.15
2023-05-18T01:55:29.123Z,79.18
2023-05-18T01:57:59.841Z,79.20
2023-05-18T02:00:26.736Z,79.22
2023-05-18T02:02:53.173Z,79.27
2023-05-18T02:05:19.741Z,79.37
2023-05-18T02:07:47.147Z,79.33
2023-05-18T02:10:14.136Z,79.34
2023-05-18T02:12:41.065Z,79.42
2023-05-18T02:15:09.530Z,79.36
2023-05-18T02:17:39.334Z,79.43
2023-05-18T02:20:07.318Z,79.60
2023-05-18T02:22:34.856Z,79.78
2023-05-18T02:25:02.664Z,79.81
2023-05-18T02:27:29.302Z,80.07
2023-05-18T02:29:56.083Z,80.00
2023-05-18T02:32:23.479Z,80.26
2023-05-18T02:34:53.072Z,80.46
2023-05-18T02:37:22.349Z,80.86
2023-05-18T02:39:49.372Z,80.97
2023-05-18T02:42:15.784Z,80.97
2023-05-18T02:44:44.710Z,81.13
2023-05-18T02:47:13.470Z,81.37
2023-05-18T02:49:40.971Z,81.45
2023-05-18T02:52:07.452Z,81.64
2023-05-18T02:54:34.062Z,81.92
2023-05-18T02:57:01.077Z,82.01
2023-05-18T02:59:35.651Z,81.88
2023-05-18T03:02:02.518Z,81.99
2023-05-18T03:04:28.977Z,82.35
2023-05-18T03:06:56.579Z,82.60
2023-05-18T03:09:23.362Z,82.82
2023-05-18T03:11:51.108Z,82.87
2023-05-18T03:14:17.429Z,83.03
2023-05-18T03:16:44.597Z,83.07
2023-05-18T03:19:15.309Z,83.17
2023-05-18T03:21:41.970Z,83.10
2023-05-18T03:24:08.432Z,83.10
2023-05-18T03:26:39.171Z,83.15
2023-05-18T03:29:05.785Z,83.17
2023-05-18T03:31:32.701Z,83.22
2023-05-18T03:33:59.544Z,83.51
2023-05-18T03:36:27.427Z,83.52
2023-05-18T03:38:54.050Z,83.51
2023-05-18T03:41:21.455Z,83.62
2023-05-18T03:43:47.860Z,83.56
2023-05-18T03:46:14.296Z,83.66
2023-05-18T03:48:40.626Z,83.71
2023-05-18T03:51:07.296Z,83.47
2023-05-18T03:53:35.526Z,83.58
2023-05-18T03:56:01.992Z,83.62
2023-05-18T03:58:29.347Z,83.58
2023-05-18T04:01:01.275Z,83.41
2023-05-18T04:03:27.886Z,83.36
2023-05-18T04:05:55.181Z,83.38
2023-05-18T04:08:24.760Z,83.46
2023-05-18T04:10:51.983Z,83.40
2023-05-18T04:13:18.458Z,83.34
2023-05-18T04:15:45.225Z,83.24
2023-05-18T04:18:13.093Z,83.10
2023-05-18T04:20:41.920Z,82.98
2023-05-18T04:23:09.498Z,82.89
2023-05-18T04:25:35.878Z,82.84
2023-05-18T04:28:02.484Z,82.82
2023-05-18T04:30:30.392Z,82.71
2023-05-18T04:32:59.836Z,82.74
2023-05-18T04:35:27.221Z,82.68
2023-05-18T04:37:54.005Z,82.71
2023-05-18T04:40:20.376Z,82.65
2023-05-18T04:42:49.109Z,82.59
2023-05-18T04:45:25.345Z,82.61
2023-05-18T04:47:54.792Z,82.54
2023-05-18T04:50:23.081Z,82.42
2023-05-18T04:52:50.823Z,82.35
2023-05-18T04:55:27.307Z,82.18
2023-05-18T04:58:04.218Z,81.94
2023-05-18T05:00:30.809Z,81.85
2023-05-18T05:02:58.584Z,81.86
2023-05-18T05:05:26.224Z,81.57
2023-05-18T05:07:53.574Z,81.41
2023-05-18T05:10:21.508Z,81.34
2023-05-18T05:12:50.784Z,81.23
2023-05-18T05:15:18.406Z,81.17
2023-05-18T05:17:48.165Z,80.97
2023-05-18T05:20:15.613Z,80.84
2023-05-18T05:22:42.387Z,80.71
2023-05-18T05:25:10.806Z,80.53
2023-05-18T05:27:38.261Z,80.34
2023-05-18T05:30:05.438Z,80.23
2023-05-18T05:32:35.316Z,80.16
2023-05-18T05:35:02.817Z,79.95
2023-05-18T05:37:29.317Z,80.01
2023-05-18T05:39:56.237Z,80.10
2023-05-18T05:42:24.777Z,79.99
2023-05-18T05:44:51.187Z,79.86
2023-05-18T05:47:18.949Z,79.81
2023-05-18T05:49:45.607Z,79.75
2023-05-18T05:52:12.100Z,79.65
2023-05-18T05:54:40.436Z,79.59
2023-05-18T05:57:07.056Z,79.53
2023-05-18T05:59:33.624Z,79.34
2023-05-18T06:02:00.491Z,79.29
2023-05-18T06:04:27.409Z,79.22
2023-05-18T06:06:54.766Z,79.11
2023-05-18T06:09:21.483Z,79.01
2023-05-18T06:11:52.260Z,79.13
2023-05-18T06:14:19.104Z,78.99
2023-05-18T06:16:45.639Z,78.85
2023-05-18T06:19:12.257Z,78.58
2023-05-18T06:21:39.125Z,78.46
2023-05-18T06:24:06.294Z,78.27
2023-05-18T06:27:01.833Z,78.45
2023-05-18T06:29:37.650Z,78.20
2023-05-18T06:32:32.579Z,77.96
2023-05-18T06:35:00.282Z,77.78
2023-05-18T06:37:26.686Z,77.75
2023-05-18T06:39:53.197Z,77.40
2023-05-18T06:42:19.811Z,77.39
2023-05-18T06:44:53.517Z,77.02
2023-05-18T06:47:28.765Z,76.59
2023-05-18T06:49:55.387Z,76.35
2023-05-18T06:52:23.188Z,76.38
2023-05-18T06:54:50.770Z,76.10
2023-05-18T06:57:17.625Z,76.28
2023-05-18T06:59:44.148Z,76.08
2023-05-18T07:02:10.501Z,75.82
2023-05-18T07:04:37.070Z,75.71
2023-05-18T07:07:03.570Z,75.64
2023-05-18T07:09:30.105Z,75.34
2023-05-18T07:11:56.510Z,74.62
2023-05-18T07:14:23.381Z,74.45
2023-05-18T07:16:49.758Z,74.15
2023-05-18T07:19:16.130Z,73.64
2023-05-18T07:21:42.538Z,73.76
2023-05-18T07:24:09.205Z,73.64
2023-05-18T07:26:35.596Z,73.67
2023-05-18T07:29:02.161Z,73.36
2023-05-18T07:31:28.548Z,73.45
2023-05-18T07:33:55.045Z,72.92
2023-05-18T07:36:21.583Z,72.51
2023-05-18T07:38:53.410Z,72.32
2023-05-18T07:41:22.049Z,72.24
2023-05-18T07:43:50.519Z,71.90
2023-05-18T07:46:17.761Z,71.55
2023-05-18T07:48:44.831Z,71.58
2023-05-18T07:51:11.787Z,71.39
2023-05-18T07:53:38.856Z,71.16
2023-05-18T07:56:06.942Z,71.08
2023-05-18T07:58:34.966Z,70.46
2023-05-18T08:01:01.444Z,69.96
2023-05-18T08:03:27.831Z,69.17
2023-05-18T08:05:54.409Z,69.52
2023-05-18T08:08:21.163Z,69.73
2023-05-18T08:10:47.591Z,68.26
2023-05-18T08:13:14.342Z,67.56
2023-05-18T08:15:40.693Z,65.20
2023-05-18T08:18:07.130Z,63.94
2023-05-18T08:20:33.776Z,63.73
2023-05-18T08:23:00.175Z,63.78
2023-05-18T08:25:26.543Z,62.22
2023-05-18T08:27:53.108Z,61.55
2023-05-18T08:30:21.101Z,58.35
2023-05-18T08:32:48.249Z,59.47
2023-05-18T08:35:14.705Z,60.21
2023-05-18T08:37:41.111Z,60.51
2023-05-18T08:40:10.882Z,61.58
2023-05-18T08:42:58.423Z,61.60
2023-05-18T08:45:38.558Z,62.01
2023-05-18T08:48:05.669Z,60.63
2023-05-18T08:50:32.525Z,61.00
2023-05-18T08:53:05.267Z,60.87
2023-05-18T08:55:36.392Z,62.40
2023-05-18T08:58:06.602Z,62.64
2023-05-18T09:00:33.493Z,62.41
2023-05-18T09:03:00.564Z,61.36
2023-05-18T09:05:27.268Z,59.97
2023-05-18T09:07:54.289Z,59.77
2023-05-18T09:10:22.080Z,59.11
2023-05-18T09:12:50.085Z,59.13
2023-05-18T09:15:21.311Z,60.67
2023-05-18T09:17:47.689Z,60.62
2023-05-18T09:20:15.870Z,60.86
2023-05-18T09:22:42.359Z,60.20
2023-05-18T09:25:09.972Z,58.87
2023-05-18T09:27:37.590Z,59.34
2023-05-18T09:30:04.567Z,58.69
2023-05-18T09:32:35.591Z,58.45
2023-05-18T09:35:06.060Z,57.97
2023-05-18T09:37:33.261Z,59.00
2023-05-18T09:40:01.563Z,59.03
2023-05-18T09:42:39.333Z,59.03
2023-05-18T09:45:26.119Z,58.87
2023-05-18T09:47:52.791Z,58.84
2023-05-18T09:50:23.340Z,58.24
2023-05-18T09:52:50.426Z,57.66
2023-05-18T09:55:19.075Z,57.79
2023-05-18T09:57:47.557Z,57.96
2023-05-18T10:00:16.318Z,57.49
2023-05-18T10:02:48.241Z,57.30
2023-05-18T10:05:33.210Z,56.15
2023-05-18T10:08:01.308Z,56.88
2023-05-18T10:10:28.947Z,56.57
2023-05-18T10:12:57.743Z,55.66
2023-05-18T10:15:24.842Z,56.07
2023-05-18T10:17:55.757Z,55.76
2023-05-18T10:20:23.768Z,55.29
2023-05-18T10:22:50.256Z,56.11
2023-05-18T10:25:24.898Z,56.12
2023-05-18T10:27:56.251Z,55.78
2023-05-18T10:30:22.972Z,56.07
2023-05-18T10:32:51.778Z,56.33
2023-05-18T10:35:18.888Z,56.30
2023-05-18T10:37:47.305Z,55.73
2023-05-18T10:40:17.028Z,54.99
2023-05-18T10:42:45.586Z,55.19
2023-05-18T10:45:12.236Z,55.40
2023-05-18T10:47:41.958Z,55.19
2023-05-18T10:50:09.369Z,54.72
2023-05-18T10:52:40.714Z,55.16
2023-05-18T10:55:08.846Z,54.89
2023-05-18T10:57:42.866Z,55.01
2023-05-18T11:00:09.987Z,54.83
2023-05-18T11:02:41.716Z,54.51
2023-05-18T11:05:10.260Z,54.46
2023-05-18T11:07:37.879Z,54.86
2023-05-18T11:10:09.438Z,55.14
2023-05-18T11:12:37.806Z,55.18
2023-05-18T11:15:05.329Z,54.32
2023-05-18T11:17:31.894Z,54.16
2023-05-18T11:20:07.453Z,53.26
2023-05-18T11:22:46.012Z,53.83
2023-05-18T11:25:27.690Z,53.91
2023-05-18T11:28:05.878Z,54.13
2023-05-18T11:30:32.302Z,53.82
2023-05-18T11:33:11.134Z,54.55
2023-05-18T11:36:12.922Z,54.90
2023-05-18T11:38:53.574Z,54.69
2023-05-18T11:41:46.959Z,54.86
2023-05-18T11:44:24.257Z,54.66
2023-05-18T11:46:53.588Z,54.54
2023-05-18T11:49:23.264Z,54.48
2023-05-18T11:52:24.310Z,54.73
2023-05-18T11:55:00.634Z,54.95
2023-05-18T11:57:35.776Z,54.89
2023-05-18T12:00:12.788Z,54.12
2023-05-18T12:02:43.137Z,53.94
2023-05-18T12:05:10.530Z,53.83
2023-05-18T12:07:38.458Z,54.29
2023-05-18T12:10:11.202Z,54.09
2023-05-18T12:12:38.898Z,53.83
2023-05-18T12:15:07.253Z,54.09
2023-05-18T12:17:43.824Z,54.99
2023-05-18T12:20:14.873Z,55.18
2023-05-18T12:22:43.825Z,54.96
2023-05-18T12:25:10.994Z,55.26
2023-05-18T12:27:43.111Z,54.32
2023-05-18T12:30:13.377Z,54.47
2023-05-18T12:32:47.964Z,54.42
2023-05-18T12:35:14.506Z,54.57
2023-05-18T12:37:45.968Z,54.65
2023-05-18T12:40:15.242Z,54.78
2023-05-18T12:43:03.579Z,53.99
2023-05-18T12:45:32.449Z,53.82
2023-05-18T12:48:06.251Z,53.66
2023-05-18T12:50:34.137Z,53.18
2023-05-18T12:53:03.358Z,53.90
2023-05-18T12:55:31.370Z,54.27
2023-05-18T12:58:17.229Z,54.46
2023-05-18T13:00:47.774Z,54.73
2023-05-18T13:03:20.878Z,55.09
2023-05-18T13:06:03.042Z,55.17
2023-05-18T13:08:31.499Z,55.11
2023-05-18T13:11:12.845Z,54.40
2023-05-18T13:14:04.033Z,55.13
2023-05-18T13:16:32.287Z,55.36
2023-05-18T13:19:01.920Z,55.20
2023-05-18T13:21:28.824Z,55.09
2023-05-18T13:23:56.718Z,55.22
2023-05-18T13:26:24.704Z,55.08
2023-05-18T13:28:54.059Z,54.97
2023-05-18T13:31:21.609Z,55.55
2023-05-18T13:33:49.660Z,55.78
2023-05-18T13:36:16.895Z,56.41
2023-05-18T13:38:43.480Z,56.23
2023-05-18T13:41:14.393Z,56.39
2023-05-18T13:43:42.006Z,56.31
2023-05-18T13:46:08.414Z,56.21
2023-05-18T13:48:34.857Z,56.60
2023-05-18T13:51:01.476Z,56.75
2023-05-18T13:53:27.943Z,57.02
2023-05-18T13:55:54.307Z,57.28
2023-05-18T13:58:20.644Z,57.25
2023-05-18T14:00:47.127Z,57.69
2023-05-18T14:03:14.462Z,57.48
2023-05-18T14:05:41.178Z,57.74
2023-05-18T14:08:07.734Z,58.02
2023-05-18T14:10:34.282Z,57.95
2023-05-18T14:13:00.736Z,58.24
2023-05-18T14:15:27.114Z,58.04
2023-05-18T14:17:53.577Z,58.16
2023-05-18T14:20:20.252Z,58.21
2023-05-18T14:22:46.698Z,58.89
2023-05-18T14:25:13.119Z,59.10
2023-05-18T14:27:39.475Z,59.19
2023-05-18T14:30:06.656Z,59.30
2023-05-18T14:32:33.151Z,58.96
2023-05-18T14:34:59.594Z,58.85
2023-05-18T14:37:26.125Z,58.72
2023-05-18T14:39:52.780Z,58.99
2023-05-18T14:42:19.422Z,59.17
2023-05-18T14:44:46.820Z,59.13
2023-05-18T14:47:13.322Z,59.15
2023-05-18T14:49:39.725Z,59.18
2023-05-18T14:52:06.245Z,59.54
2023-05-18T14:54:32.667Z,59.82
2023-05-18T14:56:59.134Z,60.02
2023-05-18T14:59:25.479Z,60.19
2023-05-18T15:01:51.984Z,60.21
2023-05-18T15:04:21.053Z,60.41
2023-05-18T15:06:48.662Z,60.47
2023-05-18T15:09:15.355Z,60.35
2023-05-18T15:11:41.878Z,60.58
2023-05-18T15:14:08.292Z,60.74
2023-05-18T15:16:35.270Z,60.89
2023-05-18T15:19:01.970Z,60.93
2023-05-18T15:21:28.825Z,60.90
2023-05-18T15:23:55.426Z,61.06
2023-05-18T15:26:21.823Z,60.99
2023-05-18T15:28:48.695Z,61.07
2023-05-18T15:31:15.913Z,61.13
2023-05-18T15:33:43.136Z,61.04
2023-05-18T15:36:10.088Z,61.12
2023-05-18T15:38:36.491Z,61.61
2023-05-18T15:41:03.253Z,61.43
2023-05-18T15:43:30.378Z,61.41
2023-05-18T15:45:57.524Z,61.64
2023-05-18T15:48:23.948Z,61.45
2023-05-18T15:50:50.307Z,61.53
2023-05-18T15:53:16.687Z,61.41
2023-05-18T15:55:43.027Z,61.54
2023-05-18T15:58:09.454Z,61.52
2023-05-18T16:00:35.820Z,61.98
2023-05-18T16:03:02.297Z,62.14
2023-05-18T16:05:29.114Z,62.22
2023-05-18T16:07:55.776Z,62.90
2023-05-18T16:10:22.887Z,63.07
2023-05-18T16:12:49.205Z,62.84
2023-05-18T16:15:15.687Z,61.55
2023-05-18T16:17:42.118Z,60.34
2023-05-18T16:20:09.049Z,58.94
2023-05-18T16:22:35.530Z,58.91
2023-05-18T16:25:01.893Z,59.69
2023-05-18T16:27:28.243Z,59.87
2023-05-18T16:29:54.685Z,60.48
2023-05-18T16:32:21.210Z,60.81
2023-05-18T16:34:47.624Z,61.10
2023-05-18T16:37:13.965Z,61.21
2023-05-18T16:39:40.518Z,61.79
2023-05-18T16:42:07.013Z,61.91
2023-05-18T16:44:34.057Z,62.12
2023-05-18T16:47:00.312Z,62.37
2023-05-18T16:49:26.690Z,62.09
2023-05-18T16:51:53.211Z,62.09
2023-05-18T16:54:19.657Z,62.30
2023-05-18T16:56:46.255Z,62.39
2023-05-18T16:59:12.665Z,62.64
2023-05-18T17:01:38.955Z,63.07
2023-05-18T17:04:05.495Z,63.20
2023-05-18T17:06:31.910Z,63.50
2023-05-18T17:08:58.659Z,63.62
2023-05-18T17:11:27.009Z,63.43
2023-05-18T17:13:53.730Z,63.84
2023-05-18T17:16:21.332Z,63.90
2023-05-18T17:18:48.254Z,63.85
2023-05-18T17:21:15.348Z,64.08
2023-05-18T17:23:41.625Z,64.27
2023-05-18T17:26:08.026Z,64.59
2023-05-18T17:28:34.361Z,64.63
2023-05-18T17:31:00.807Z,64.73
2023-05-18T17:33:27.096Z,64.94
2023-05-18T17:35:53.421Z,65.25
2023-05-18T17:38:21.810Z,65.47
2023-05-18T17:40:48.065Z,65.47
2023-05-18T17:43:14.413Z,65.65
2023-05-18T17:45:40.793Z,65.76
2023-05-18T17:48:07.176Z,66.37
2023-05-18T17:50:36.919Z,67.04
2023-05-18T17:53:04.192Z,67.30
2023-05-18T17:55:30.652Z,68.15
2023-05-18T17:57:58.919Z,69.04
2023-05-18T18:00:25.369Z,68.88
2023-05-18T18:02:51.745Z,68.94
2023-05-18T18:05:18.129Z,68.95
2023-05-18T18:07:44.467Z,69.72
2023-05-18T18:10:11.143Z,70.29
2023-05-18T18:12:37.423Z,70.45
2023-05-18T18:15:03.991Z,69.49
2023-05-18T18:17:30.660Z,69.18
2023-05-18T18:19:57.782Z,70.05
2023-05-18T18:22:24.097Z,70.70
2023-05-18T18:24:50.362Z,71.26
2023-05-18T18:27:18.692Z,71.95
2023-05-18T18:29:45.600Z,72.44
2023-05-18T18:32:11.941Z,73.02
2023-05-18T18:34:38.331Z,73.13
2023-05-18T18:37:04.978Z,73.41
2023-05-18T18:39:31.438Z,74.01
2023-05-18T18:41:57.784Z,74.27
2023-05-18T18:44:24.080Z,74.52
2023-05-18T18:46:50.509Z,74.88
2023-05-18T18:49:16.954Z,75.30
2023-05-18T18:51:43.624Z,75.71
2023-05-18T18:54:10.260Z,75.75
2023-05-18T18:56:36.587Z,76.22
2023-05-18T18:59:02.943Z,76.88
2023-05-18T19:01:29.292Z,77.09
2023-05-18T19:03:55.677Z,77.51
2023-05-18T19:06:22.624Z,77.75
2023-05-18T19:08:51.513Z,78.11
2023-05-18T19:11:17.951Z,78.58
2023-05-18T19:13:44.203Z,78.99
2023-05-18T19:16:10.656Z,79.30
2023-05-18T19:18:37.109Z,79.37
2023-05-18T19:21:03.517Z,79.49
2023-05-18T19:23:29.788Z,79.47
2023-05-18T19:25:56.190Z,79.63
2023-05-18T19:28:22.716Z,79.86
2023-05-18T19:30:48.999Z,80.04
2023-05-18T19:33:15.498Z,80.35
2023-05-18T19:35:41.971Z,80.65
2023-05-18T19:38:08.428Z,80.72
2023-05-18T19:40:35.192Z,80.74
2023-05-18T19:43:02.526Z,80.99
2023-05-18T19:45:29.118Z,81.15
2023-05-18T19:47:57.176Z,81.25
2023-05-18T19:50:23.565Z,81.50
2023-05-18T19:52:50.102Z,81.77
2023-05-18T19:55:17.123Z,81.84
2023-05-18T19:57:43.428Z,81.99
2023-05-18T20:00:13.098Z,82.25
2023-05-18T20:02:39.586Z,82.37
2023-05-18T20:05:06.896Z,82.53
2023-05-18T20:07:33.440Z,82.77
2023-05-18T20:09:59.871Z,83.01
2023-05-18T20:12:27.635Z,83.17
2023-05-18T20:14:54.508Z,83.21
2023-05-18T20:17:20.952Z,83.28
2023-05-18T20:19:49.881Z,83.41
2023-05-18T20:22:17.206Z,83.50
2023-05-18T20:24:44.054Z,83.72
2023-05-18T20:27:14.457Z,83.76
2023-05-18T20:29:40.894Z,83.78
2023-05-18T20:32:07.345Z,83.83
2023-05-18T20:34:34.368Z,84.06
2023-05-18T20:37:01.921Z,84.12
2023-05-18T20:39:28.340Z,84.08
2023-05-18T20:41:54.661Z,84.03
2023-05-18T20:44:22.785Z,84.00
2023-05-18T20:46:52.197Z,84.11
2023-05-18T20:49:20.963Z,84.01
2023-05-18T20:51:48.567Z,83.69
2023-05-18T20:54:17.156Z,83.84
2023-05-18T20:56:43.782Z,84.00
2023-05-18T20:59:11.983Z,84.10
2023-05-18T21:01:38.787Z,84.13
2023-05-18T21:04:05.684Z,84.32
2023-05-18T21:06:32.205Z,84.55
2023-05-18T21:08:58.640Z,84.66
2023-05-18T21:11:25.515Z,84.72
2023-05-18T21:13:51.989Z,84.76
2023-05-18T21:16:18.602Z,84.84
2023-05-18T21:18:45.053Z,84.96
2023-05-18T21:21:11.346Z,85.11
2023-05-18T21:23:37.828Z,85.17
2023-05-18T21:26:04.273Z,85.19
2023-05-18T21:28:31.102Z,85.29
2023-05-18T21:30:57.553Z,85.41
2023-05-18T21:33:24.117Z,85.46
2023-05-18T21:35:50.672Z,85.54
2023-05-18T21:38:17.057Z,85.49
2023-05-18T21:40:43.936Z,85.52
2023-05-18T21:43:10.991Z,85.63
2023-05-18T21:45:38.196Z,85.72
2023-05-18T21:48:05.000Z,85.84
2023-05-18T21:50:33.764Z,86.03
2023-05-18T21:53:02.153Z,86.04
2023-05-18T21:55:29.735Z,86.00
2023-05-18T21:57:56.073Z,86.09
2023-05-18T22:00:22.428Z,86.19
2023-05-18T22:02:48.732Z,86.35
2023-05-18T22:05:15.484Z,86.39
2023-05-18T22:07:42.109Z,86.44
2023-05-18T22:10:08.690Z,86.38
2023-05-18T22:12:37.091Z,86.47
2023-05-18T22:15:04.134Z,86.52
2023-05-18T22:17:30.498Z,86.65
2023-05-18T22:19:57.518Z,86.84
2023-05-18T22:24:55.422Z,86.90
2023-05-18T22:27:21.740Z,86.96
2023-05-18T22:29:48.004Z,86.82
2023-05-18T22:32:16.324Z,86.74
2023-05-18T22:34:42.714Z,86.40
2023-05-18T22:37:08.987Z,85.82
2023-05-18T22:39:35.298Z,85.08
2023-05-18T22:42:01.589Z,84.56
2023-05-18T22:44:27.960Z,84.13
2023-05-18T22:46:54.474Z,83.35
2023-05-18T22:49:21.479Z,83.25
2023-05-18T22:51:47.804Z,83.16
2023-05-18T22:54:14.276Z,83.11
2023-05-18T22:56:40.624Z,82.72
2023-05-18T22:59:09.552Z,82.81
2023-05-18T23:01:36.961Z,82.81
2023-05-18T23:04:03.354Z,82.86
2023-05-18T23:06:31.019Z,82.98
2023-05-18T23:08:59.781Z,83.01
2023-05-18T23:11:27.663Z,82.97
2023-05-18T23:13:54.020Z,82.93
2023-05-18T23:16:20.696Z,82.91
2023-05-18T23:18:48.090Z,83.23
2023-05-18T23:21:14.361Z,83.45
2023-05-18T23:23:40.857Z,83.67
2023-05-18T23:26:08.441Z,84.07
2023-05-18T23:28:35.023Z,84.25
2023-05-18T23:31:01.304Z,84.48
2023-05-18T23:33:28.107Z,84.70
2023-05-18T23:35:59.173Z,84.85
2023-05-18T23:38:33.979Z,84.92
2023-05-18T23:41:03.021Z,85.10
2023-05-18T23:43:29.716Z,85.24
2023-05-18T23:45:58.851Z,85.41
2023-05-18T23:48:31.647Z,85.53
2023-05-18T23:51:01.052Z,85.72
2023-05-18T23:53:31.846Z,85.93
2023-05-18T23:55:59.460Z,86.09
2023-05-18T23:58:31.354Z,86.23
